This is the latest recevied weather packets stored in our database for station/object IK2ILW-6. If no packets are shown the sender has not sent any weather packets the latest 10 day(s).
| Time | Temp. | Humidity | Pressure | Rain* | Wind** | Luminosity | Snow |
|---|---|---|---|---|---|---|---|
| 1777978601 | 3.33° C | 91% | 1013 hPa | 7.87 mm | - | 229 W/m² | - |
| 1777977699 | 2.78° C | 91% | 1012.7 hPa | 8.89 mm | - | 211 W/m² | - |
| 1777977383 | 2.78° C | 92% | 1012.6 hPa | 9.91 mm | - | 192 W/m² | - |
| 1777977086 | 2.78° C | 91% | 1012.8 hPa | 8.89 mm | - | 232 W/m² | - |
| 1777976496 | 2.78° C | 90% | 1013.1 hPa | 8.89 mm | - | 146 W/m² | - |
| 1777976201 | 3.33° C | 89% | 1012.9 hPa | 7.87 mm | - | 125 W/m² | - |
| 1777975885 | 3.33° C | 90% | 1012.9 hPa | 7.87 mm | - | 139 W/m² | - |
| 1777975589 | 3.33° C | 89% | 1012.6 hPa | 7.87 mm | - | 193 W/m² | - |
| 1777975293 | 3.33° C | 90% | 1012.8 hPa | 7.87 mm | - | 246 W/m² | - |
| 1777974998 | 3.33° C | 91% | 1012.7 hPa | 7.87 mm | - | 250 W/m² | - |
| 1777974095 | 2.22° C | 95% | 1012.7 hPa | 9.91 mm | - | 218 W/m² | - |
| 1777973798 | 2.22° C | 94% | 1013 hPa | 9.91 mm | - | 167 W/m² | - |
| 1777973502 | 2.22° C | 94% | 1013 hPa | 10.92 mm | - | 171 W/m² | - |
| 1777973205 | 2.22° C | 94% | 1012.9 hPa | 10.92 mm | - | 188 W/m² | - |
| 1777972889 | 2.22° C | 94% | 1013 hPa | 12.95 mm | - | 211 W/m² | - |
| 1777972593 | 2.22° C | 93% | 1012.8 hPa | 13.97 mm | - | 269 W/m² | - |
| 1777972295 | 2.22° C | 94% | 1012.6 hPa | 13.97 mm | - | 239 W/m² | - |
| 1777972000 | 2.22° C | 93% | 1012.8 hPa | 14.99 mm | - | 258 W/m² | - |
| 1777971703 | 1.67° C | 93% | 1012.7 hPa | 16 mm | - | 251 W/m² | - |
| 1777971097 | 1.67° C | 93% | 1012.8 hPa | 13.97 mm | - | 220 W/m² | - |
| 1777819589 | 8.89° C | 57% | 1021.3 hPa | 0 mm | - | 315 W/m² | - |
| 1777818093 | 9.44° C | 61% | 1021.6 hPa | 0 mm | - | 385 W/m² | - |
| 1777817191 | 9.44° C | 63% | 1021.7 hPa | 0 mm | - | 780 W/m² | - |
| 1777816296 | 8.89° C | 64% | 1021.7 hPa | 0 mm | - | 520 W/m² | - |
| 1777815398 | 9.44° C | 62% | 1021.9 hPa | 0 mm | - | 367 W/m² | - |
* Rain latest hour (hover to see other rain measurements)
** Current wind speed in m/s (hover to see current wind gust speed)